sensor_id;sensor_type;location;lat;lon;timestamp;temperature;humidity
19232;DHT22;9750;48.730;10.294;2022-08-18T00:01:16;20.40;99.90
19232;DHT22;9750;48.730;10.294;2022-08-18T00:03:44;20.30;99.90
19232;DHT22;9750;48.730;10.294;2022-08-18T00:06:11;20.20;99.90
19232;DHT22;9750;48.730;10.294;2022-08-18T00:08:38;20.20;99.90
19232;DHT22;9750;48.730;10.294;2022-08-18T00:11:07;20.20;99.90
19232;DHT22;9750;48.730;10.294;2022-08-18T00:13:35;20.20;99.90
19232;DHT22;9750;48.730;10.294;2022-08-18T00:16:03;20.20;99.90
19232;DHT22;9750;48.730;10.294;2022-08-18T00:18:30;20.10;99.90
19232;DHT22;9750;48.730;10.294;2022-08-18T00:20:58;20.10;99.90
19232;DHT22;9750;48.730;10.294;2022-08-18T00:23:27;20.10;99.90
19232;DHT22;9750;48.730;10.294;2022-08-18T00:25:57;20.10;99.90
19232;DHT22;9750;48.730;10.294;2022-08-18T00:28:26;20.00;99.90
19232;DHT22;9750;48.730;10.294;2022-08-18T00:30:54;19.90;99.90
19232;DHT22;9750;48.730;10.294;2022-08-18T00:33:21;20.00;99.90
19232;DHT22;9750;48.730;10.294;2022-08-18T00:35:49;20.00;99.90
19232;DHT22;9750;48.730;10.294;2022-08-18T00:38:16;20.10;99.90
19232;DHT22;9750;48.730;10.294;2022-08-18T00:40:50;20.00;99.90
19232;DHT22;9750;48.730;10.294;2022-08-18T00:43:22;20.00;99.90
19232;DHT22;9750;48.730;10.294;2022-08-18T00:45:53;20.00;99.90
19232;DHT22;9750;48.730;10.294;2022-08-18T00:48:21;20.10;99.90
19232;DHT22;9750;48.730;10.294;2022-08-18T00:50:51;20.10;99.90
19232;DHT22;9750;48.730;10.294;2022-08-18T00:53:22;20.10;99.90
19232;DHT22;9750;48.730;10.294;2022-08-18T00:55:53;20.00;99.90
19232;DHT22;9750;48.730;10.294;2022-08-18T00:58:25;20.00;99.90
19232;DHT22;9750;48.730;10.294;2022-08-18T01:00:56;20.00;99.90
19232;DHT22;9750;48.730;10.294;2022-08-18T01:03:23;20.00;99.90
19232;DHT22;9750;48.730;10.294;2022-08-18T01:05:55;20.00;99.90
19232;DHT22;9750;48.730;10.294;2022-08-18T01:08:23;20.00;99.90
19232;DHT22;9750;48.730;10.294;2022-08-18T01:10:51;20.10;99.90
19232;DHT22;9750;48.730;10.294;2022-08-18T01:13:20;20.10;99.90
19232;DHT22;9750;48.730;10.294;2022-08-18T01:15:52;20.00;99.90
19232;DHT22;9750;48.730;10.294;2022-08-18T01:18:21;20.00;99.90
19232;DHT22;9750;48.730;10.294;2022-08-18T01:21:11;20.00;99.90
19232;DHT22;9750;48.730;10.294;2022-08-18T01:24:01;19.90;99.90
19232;DHT22;9750;48.730;10.294;2022-08-18T01:26:30;19.90;99.90
19232;DHT22;9750;48.730;10.294;2022-08-18T01:29:04;19.90;99.90
19232;DHT22;9750;48.730;10.294;2022-08-18T01:31:38;19.90;99.90
19232;DHT22;9750;48.730;10.294;2022-08-18T01:34:07;19.90;99.90
19232;DHT22;9750;48.730;10.294;2022-08-18T01:36:36;19.80;99.90
19232;DHT22;9750;48.730;10.294;2022-08-18T01:39:09;19.80;99.90
19232;DHT22;9750;48.730;10.294;2022-08-18T01:41:38;19.80;99.90
19232;DHT22;9750;48.730;10.294;2022-08-18T01:44:06;19.80;99.90
19232;DHT22;9750;48.730;10.294;2022-08-18T01:46:34;19.90;99.90
19232;DHT22;9750;48.730;10.294;2022-08-18T01:49:03;19.90;99.90
19232;DHT22;9750;48.730;10.294;2022-08-18T01:51:31;19.90;99.90
19232;DHT22;9750;48.730;10.294;2022-08-18T01:54:00;19.90;99.90
19232;DHT22;9750;48.730;10.294;2022-08-18T01:56:29;19.90;99.90
19232;DHT22;9750;48.730;10.294;2022-08-18T01:58:57;19.90;99.90
19232;DHT22;9750;48.730;10.294;2022-08-18T02:01:25;19.90;99.90
19232;DHT22;9750;48.730;10.294;2022-08-18T02:03:55;19.90;99.90
19232;DHT22;9750;48.730;10.294;2022-08-18T02:06:24;19.90;99.90
19232;DHT22;9750;48.730;10.294;2022-08-18T02:08:52;19.90;99.90
19232;DHT22;9750;48.730;10.294;2022-08-18T02:11:20;19.90;99.90
19232;DHT22;9750;48.730;10.294;2022-08-18T02:13:49;19.90;99.90
19232;DHT22;9750;48.730;10.294;2022-08-18T02:16:16;19.90;99.90
19232;DHT22;9750;48.730;10.294;2022-08-18T02:18:44;19.90;99.90
19232;DHT22;9750;48.730;10.294;2022-08-18T02:21:15;19.80;99.90
19232;DHT22;9750;48.730;10.294;2022-08-18T02:23:44;19.80;99.90
19232;DHT22;9750;48.730;10.294;2022-08-18T02:26:14;19.80;99.90
19232;DHT22;9750;48.730;10.294;2022-08-18T02:28:42;19.80;99.90
19232;DHT22;9750;48.730;10.294;2022-08-18T02:31:14;19.80;99.90
19232;DHT22;9750;48.730;10.294;2022-08-18T02:33:42;19.80;99.90
19232;DHT22;9750;48.730;10.294;2022-08-18T02:36:10;19.80;99.90
19232;DHT22;9750;48.730;10.294;2022-08-18T02:38:38;19.80;99.90
19232;DHT22;9750;48.730;10.294;2022-08-18T02:41:24;19.70;99.90
19232;DHT22;9750;48.730;10.294;2022-08-18T02:43:53;19.60;99.90
19232;DHT22;9750;48.730;10.294;2022-08-18T02:46:21;19.60;99.90
19232;DHT22;9750;48.730;10.294;2022-08-18T02:48:49;19.60;99.90
19232;DHT22;9750;48.730;10.294;2022-08-18T02:51:17;19.50;99.90
19232;DHT22;9750;48.730;10.294;2022-08-18T02:53:46;19.50;99.90
19232;DHT22;9750;48.730;10.294;2022-08-18T02:56:16;19.50;99.90
19232;DHT22;9750;48.730;10.294;2022-08-18T02:58:50;19.50;99.90
19232;DHT22;9750;48.730;10.294;2022-08-18T03:01:19;19.50;99.90
19232;DHT22;9750;48.730;10.294;2022-08-18T03:03:48;19.40;99.90
19232;DHT22;9750;48.730;10.294;2022-08-18T03:06:17;19.40;99.90
19232;DHT22;9750;48.730;10.294;2022-08-18T03:08:44;19.50;99.90
19232;DHT22;9750;48.730;10.294;2022-08-18T03:11:14;19.50;99.90
19232;DHT22;9750;48.730;10.294;2022-08-18T03:13:42;19.50;99.90
19232;DHT22;9750;48.730;10.294;2022-08-18T03:16:11;19.50;99.90
19232;DHT22;9750;48.730;10.294;2022-08-18T03:18:39;19.50;99.90
19232;DHT22;9750;48.730;10.294;2022-08-18T03:21:10;19.50;99.90
19232;DHT22;9750;48.730;10.294;2022-08-18T03:23:38;19.50;99.90
19232;DHT22;9750;48.730;10.294;2022-08-18T03:26:07;19.50;99.90
19232;DHT22;9750;48.730;10.294;2022-08-18T03:28:36;19.50;99.90
19232;DHT22;9750;48.730;10.294;2022-08-18T03:31:06;19.50;99.90
19232;DHT22;9750;48.730;10.294;2022-08-18T03:33:34;19.50;99.90
19232;DHT22;9750;48.730;10.294;2022-08-18T03:36:03;19.50;99.90
19232;DHT22;9750;48.730;10.294;2022-08-18T03:38:33;19.50;99.90
19232;DHT22;9750;48.730;10.294;2022-08-18T03:41:00;19.50;99.90
19232;DHT22;9750;48.730;10.294;2022-08-18T03:43:28;19.40;99.90
19232;DHT22;9750;48.730;10.294;2022-08-18T03:45:59;19.40;99.90
19232;DHT22;9750;48.730;10.294;2022-08-18T03:48:27;19.40;99.90
19232;DHT22;9750;48.730;10.294;2022-08-18T03:51:01;19.40;99.90
19232;DHT22;9750;48.730;10.294;2022-08-18T03:53:28;19.40;99.90
19232;DHT22;9750;48.730;10.294;2022-08-18T03:55:58;19.40;99.90
19232;DHT22;9750;48.730;10.294;2022-08-18T03:58:26;19.30;99.90
19232;DHT22;9750;48.730;10.294;2022-08-18T04:00:54;19.30;99.90
19232;DHT22;9750;48.730;10.294;2022-08-18T04:03:21;19.30;99.90
19232;DHT22;9750;48.730;10.294;2022-08-18T04:05:49;19.30;99.90
19232;DHT22;9750;48.730;10.294;2022-08-18T04:08:16;19.30;99.90
19232;DHT22;9750;48.730;10.294;2022-08-18T04:10:44;19.30;99.90
19232;DHT22;9750;48.730;10.294;2022-08-18T04:13:25;19.20;99.90
19232;DHT22;9750;48.730;10.294;2022-08-18T04:15:52;19.20;99.90
19232;DHT22;9750;48.730;10.294;2022-08-18T04:18:20;19.20;99.90
19232;DHT22;9750;48.730;10.294;2022-08-18T04:20:47;19.10;99.90
19232;DHT22;9750;48.730;10.294;2022-08-18T04:23:14;19.10;99.90
19232;DHT22;9750;48.730;10.294;2022-08-18T04:25:42;19.10;99.90
19232;DHT22;9750;48.730;10.294;2022-08-18T04:28:09;19.10;99.90
19232;DHT22;9750;48.730;10.294;2022-08-18T04:30:38;19.00;99.90
19232;DHT22;9750;48.730;10.294;2022-08-18T04:33:06;19.00;99.90
19232;DHT22;9750;48.730;10.294;2022-08-18T04:35:33;19.00;99.90
19232;DHT22;9750;48.730;10.294;2022-08-18T04:38:01;19.00;99.90
19232;DHT22;9750;48.730;10.294;2022-08-18T04:40:34;19.00;99.90
19232;DHT22;9750;48.730;10.294;2022-08-18T04:43:05;19.00;99.90
19232;DHT22;9750;48.730;10.294;2022-08-18T04:45:57;19.00;99.90
19232;DHT22;9750;48.730;10.294;2022-08-18T04:48:33;19.00;99.90
19232;DHT22;9750;48.730;10.294;2022-08-18T04:51:05;19.00;99.90
19232;DHT22;9750;48.730;10.294;2022-08-18T04:53:34;19.00;99.90
19232;DHT22;9750;48.730;10.294;2022-08-18T04:56:15;19.00;99.90
19232;DHT22;9750;48.730;10.294;2022-08-18T04:58:46;19.00;99.90
19232;DHT22;9750;48.730;10.294;2022-08-18T05:01:19;19.00;99.90
19232;DHT22;9750;48.730;10.294;2022-08-18T05:03:47;19.00;99.90
19232;DHT22;9750;48.730;10.294;2022-08-18T05:06:16;19.00;99.90
19232;DHT22;9750;48.730;10.294;2022-08-18T05:08:44;19.00;99.90
19232;DHT22;9750;48.730;10.294;2022-08-18T05:11:13;19.00;99.90
19232;DHT22;9750;48.730;10.294;2022-08-18T05:13:40;19.00;99.90
19232;DHT22;9750;48.730;10.294;2022-08-18T05:16:08;19.10;99.90
19232;DHT22;9750;48.730;10.294;2022-08-18T05:18:37;19.10;99.90
19232;DHT22;9750;48.730;10.294;2022-08-18T05:21:06;19.10;99.90
19232;DHT22;9750;48.730;10.294;2022-08-18T05:23:33;19.10;99.90
19232;DHT22;9750;48.730;10.294;2022-08-18T05:26:02;19.10;99.90
19232;DHT22;9750;48.730;10.294;2022-08-18T05:28:30;19.10;99.90
19232;DHT22;9750;48.730;10.294;2022-08-18T05:31:05;19.10;99.90
19232;DHT22;9750;48.730;10.294;2022-08-18T05:33:33;19.00;99.90
19232;DHT22;9750;48.730;10.294;2022-08-18T05:36:04;19.00;99.90
19232;DHT22;9750;48.730;10.294;2022-08-18T05:38:39;19.00;99.90
19232;DHT22;9750;48.730;10.294;2022-08-18T05:41:11;19.00;99.90
19232;DHT22;9750;48.730;10.294;2022-08-18T05:43:40;19.00;99.90
19232;DHT22;9750;48.730;10.294;2022-08-18T05:46:09;19.10;99.90
19232;DHT22;9750;48.730;10.294;2022-08-18T05:52:27;19.30;99.90
19232;DHT22;9750;48.730;10.294;2022-08-18T06:02:00;19.60;99.90
19232;DHT22;9750;48.730;10.294;2022-08-18T06:07:59;19.60;99.90
19232;DHT22;9750;48.730;10.294;2022-08-18T06:10:59;19.60;99.90
19232;DHT22;9750;48.730;10.294;2022-08-18T06:13:49;19.60;99.90
19232;DHT22;9750;48.730;10.294;2022-08-18T06:23:48;19.70;99.90
19232;DHT22;9750;48.730;10.294;2022-08-18T06:26:55;19.70;99.90
19232;DHT22;9750;48.730;10.294;2022-08-18T06:33:07;19.70;99.90
19232;DHT22;9750;48.730;10.294;2022-08-18T06:55:48;19.90;99.90
19232;DHT22;9750;48.730;10.294;2022-08-18T07:09:22;20.30;99.90
19232;DHT22;9750;48.730;10.294;2022-08-18T07:12:02;20.40;99.90
19232;DHT22;9750;48.730;10.294;2022-08-18T07:16:44;20.40;99.90
19232;DHT22;9750;48.730;10.294;2022-08-18T07:18:21;20.50;99.90
19232;DHT22;9750;48.730;10.294;2022-08-18T07:21:59;20.60;99.90
19232;DHT22;9750;48.730;10.294;2022-08-18T07:31:18;20.70;99.90
19232;DHT22;9750;48.730;10.294;2022-08-18T07:34:02;20.70;99.90
19232;DHT22;9750;48.730;10.294;2022-08-18T07:36:45;20.80;99.90
19232;DHT22;9750;48.730;10.294;2022-08-18T07:39:17;20.80;99.90
19232;DHT22;9750;48.730;10.294;2022-08-18T07:41:49;20.80;99.90
19232;DHT22;9750;48.730;10.294;2022-08-18T07:44:23;20.80;99.90
19232;DHT22;9750;48.730;10.294;2022-08-18T07:46:56;20.90;99.90
19232;DHT22;9750;48.730;10.294;2022-08-18T07:49:27;20.80;99.90
19232;DHT22;9750;48.730;10.294;2022-08-18T07:52:02;20.90;99.90
19232;DHT22;9750;48.730;10.294;2022-08-18T07:54:41;20.90;99.90
19232;DHT22;9750;48.730;10.294;2022-08-18T07:57:13;20.90;99.90
19232;DHT22;9750;48.730;10.294;2022-08-18T07:59:49;20.90;99.90
19232;DHT22;9750;48.730;10.294;2022-08-18T08:02:35;20.90;99.90
19232;DHT22;9750;48.730;10.294;2022-08-18T08:05:13;20.90;99.90
19232;DHT22;9750;48.730;10.294;2022-08-18T08:07:47;20.90;99.90
19232;DHT22;9750;48.730;10.294;2022-08-18T08:10:28;20.80;99.90
19232;DHT22;9750;48.730;10.294;2022-08-18T08:13:04;20.80;99.90
19232;DHT22;9750;48.730;10.294;2022-08-18T08:15:41;20.70;99.90
19232;DHT22;9750;48.730;10.294;2022-08-18T08:18:17;20.80;99.90
19232;DHT22;9750;48.730;10.294;2022-08-18T08:20:51;20.80;99.90
19232;DHT22;9750;48.730;10.294;2022-08-18T08:23:25;20.80;99.90
19232;DHT22;9750;48.730;10.294;2022-08-18T08:26:19;20.80;99.90
19232;DHT22;9750;48.730;10.294;2022-08-18T08:28:56;20.80;99.90
19232;DHT22;9750;48.730;10.294;2022-08-18T08:31:39;20.80;99.90
19232;DHT22;9750;48.730;10.294;2022-08-18T08:34:15;20.80;99.90
19232;DHT22;9750;48.730;10.294;2022-08-18T08:36:46;20.80;99.90
19232;DHT22;9750;48.730;10.294;2022-08-18T08:39:19;20.80;99.90
19232;DHT22;9750;48.730;10.294;2022-08-18T08:41:52;20.90;99.90
19232;DHT22;9750;48.730;10.294;2022-08-18T08:44:22;21.00;99.90
19232;DHT22;9750;48.730;10.294;2022-08-18T08:46:55;21.00;99.90
19232;DHT22;9750;48.730;10.294;2022-08-18T08:49:39;21.00;99.90
19232;DHT22;9750;48.730;10.294;2022-08-18T08:52:13;21.10;99.90
19232;DHT22;9750;48.730;10.294;2022-08-18T08:54:47;21.10;99.90
19232;DHT22;9750;48.730;10.294;2022-08-18T08:57:17;21.20;99.80
19232;DHT22;9750;48.730;10.294;2022-08-18T08:59:46;21.20;99.40
19232;DHT22;9750;48.730;10.294;2022-08-18T09:05:29;21.20;99.90
19232;DHT22;9750;48.730;10.294;2022-08-18T09:08:17;21.30;99.90
19232;DHT22;9750;48.730;10.294;2022-08-18T09:14:22;21.40;99.40
19232;DHT22;9750;48.730;10.294;2022-08-18T09:17:09;21.40;99.90
19232;DHT22;9750;48.730;10.294;2022-08-18T09:19:57;21.60;99.90
19232;DHT22;9750;48.730;10.294;2022-08-18T09:22:38;21.70;99.90
19232;DHT22;9750;48.730;10.294;2022-08-18T09:25:30;21.80;99.50
19232;DHT22;9750;48.730;10.294;2022-08-18T09:28:09;21.90;99.90
19232;DHT22;9750;48.730;10.294;2022-08-18T09:30:44;22.00;99.80
19232;DHT22;9750;48.730;10.294;2022-08-18T09:36:21;22.10;99.50
19232;DHT22;9750;48.730;10.294;2022-08-18T09:38:57;22.10;99.50
19232;DHT22;9750;48.730;10.294;2022-08-18T09:41:50;22.10;99.70
19232;DHT22;9750;48.730;10.294;2022-08-18T09:44:56;22.20;98.80
19232;DHT22;9750;48.730;10.294;2022-08-18T09:47:58;22.30;99.60
19232;DHT22;9750;48.730;10.294;2022-08-18T09:54:10;22.50;98.40
19232;DHT22;9750;48.730;10.294;2022-08-18T10:03:11;22.80;97.40
19232;DHT22;9750;48.730;10.294;2022-08-18T10:05:40;22.80;97.50
19232;DHT22;9750;48.730;10.294;2022-08-18T10:11:43;22.90;96.20
19232;DHT22;9750;48.730;10.294;2022-08-18T10:20:26;23.00;96.50
19232;DHT22;9750;48.730;10.294;2022-08-18T10:23:09;23.00;95.40
19232;DHT22;9750;48.730;10.294;2022-08-18T10:25:39;23.20;95.60
19232;DHT22;9750;48.730;10.294;2022-08-18T10:28:10;23.30;96.30
19232;DHT22;9750;48.730;10.294;2022-08-18T10:31:03;23.50;95.30
19232;DHT22;9750;48.730;10.294;2022-08-18T10:34:05;23.50;94.80
19232;DHT22;9750;48.730;10.294;2022-08-18T10:36:44;23.60;94.40
19232;DHT22;9750;48.730;10.294;2022-08-18T10:39:13;23.70;94.50
19232;DHT22;9750;48.730;10.294;2022-08-18T10:42:02;23.70;94.00
19232;DHT22;9750;48.730;10.294;2022-08-18T10:44:36;23.50;94.10
19232;DHT22;9750;48.730;10.294;2022-08-18T10:47:06;23.50;93.90
19232;DHT22;9750;48.730;10.294;2022-08-18T10:49:35;23.40;94.40
19232;DHT22;9750;48.730;10.294;2022-08-18T10:52:33;23.40;93.40
19232;DHT22;9750;48.730;10.294;2022-08-18T10:55:13;23.50;93.40
19232;DHT22;9750;48.730;10.294;2022-08-18T10:58:08;23.50;94.00
19232;DHT22;9750;48.730;10.294;2022-08-18T11:00:47;23.60;93.70
19232;DHT22;9750;48.730;10.294;2022-08-18T11:03:28;23.90;92.10
19232;DHT22;9750;48.730;10.294;2022-08-18T11:06:02;24.00;91.90
19232;DHT22;9750;48.730;10.294;2022-08-18T11:08:36;24.20;91.70
19232;DHT22;9750;48.730;10.294;2022-08-18T11:11:07;24.30;91.80
19232;DHT22;9750;48.730;10.294;2022-08-18T11:13:44;24.40;91.70
19232;DHT22;9750;48.730;10.294;2022-08-18T11:16:28;24.30;90.80
19232;DHT22;9750;48.730;10.294;2022-08-18T11:19:06;24.20;91.10
19232;DHT22;9750;48.730;10.294;2022-08-18T11:21:39;24.30;91.50
19232;DHT22;9750;48.730;10.294;2022-08-18T11:24:12;24.50;91.10
19232;DHT22;9750;48.730;10.294;2022-08-18T11:26:43;24.60;91.10
19232;DHT22;9750;48.730;10.294;2022-08-18T11:29:19;24.80;91.50
19232;DHT22;9750;48.730;10.294;2022-08-18T11:31:49;25.00;91.30
19232;DHT22;9750;48.730;10.294;2022-08-18T11:34:20;25.10;90.40
19232;DHT22;9750;48.730;10.294;2022-08-18T11:36:57;25.30;90.00
19232;DHT22;9750;48.730;10.294;2022-08-18T11:39:25;25.30;89.20
19232;DHT22;9750;48.730;10.294;2022-08-18T11:41:53;25.30;88.10
19232;DHT22;9750;48.730;10.294;2022-08-18T11:44:24;25.20;88.00
19232;DHT22;9750;48.730;10.294;2022-08-18T11:47:09;25.20;88.30
19232;DHT22;9750;48.730;10.294;2022-08-18T11:49:48;25.30;88.60
19232;DHT22;9750;48.730;10.294;2022-08-18T11:52:19;25.40;88.70
19232;DHT22;9750;48.730;10.294;2022-08-18T11:54:50;25.40;88.90
19232;DHT22;9750;48.730;10.294;2022-08-18T11:57:38;25.40;87.90
19232;DHT22;9750;48.730;10.294;2022-08-18T12:00:36;25.30;87.10
19232;DHT22;9750;48.730;10.294;2022-08-18T12:03:08;25.20;87.50
19232;DHT22;9750;48.730;10.294;2022-08-18T12:05:47;25.30;87.10
19232;DHT22;9750;48.730;10.294;2022-08-18T12:08:22;25.30;87.20
19232;DHT22;9750;48.730;10.294;2022-08-18T12:11:02;25.40;86.80
19232;DHT22;9750;48.730;10.294;2022-08-18T12:13:29;25.40;86.70
19232;DHT22;9750;48.730;10.294;2022-08-18T12:16:13;25.30;86.00
19232;DHT22;9750;48.730;10.294;2022-08-18T12:18:42;25.30;85.70
19232;DHT22;9750;48.730;10.294;2022-08-18T12:21:09;25.30;86.70
19232;DHT22;9750;48.730;10.294;2022-08-18T12:23:39;25.30;86.30
19232;DHT22;9750;48.730;10.294;2022-08-18T12:26:10;25.30;84.60
19232;DHT22;9750;48.730;10.294;2022-08-18T12:28:38;25.20;83.60
19232;DHT22;9750;48.730;10.294;2022-08-18T12:31:06;25.20;83.30
19232;DHT22;9750;48.730;10.294;2022-08-18T12:33:34;25.10;82.90
19232;DHT22;9750;48.730;10.294;2022-08-18T12:36:03;25.10;84.20
19232;DHT22;9750;48.730;10.294;2022-08-18T12:38:32;25.10;85.30
19232;DHT22;9750;48.730;10.294;2022-08-18T12:41:00;25.00;85.10
19232;DHT22;9750;48.730;10.294;2022-08-18T12:43:28;25.00;85.50
19232;DHT22;9750;48.730;10.294;2022-08-18T12:45:57;25.00;85.20
19232;DHT22;9750;48.730;10.294;2022-08-18T12:48:26;25.00;82.00
19232;DHT22;9750;48.730;10.294;2022-08-18T12:50:56;25.00;83.50
19232;DHT22;9750;48.730;10.294;2022-08-18T12:53:25;25.10;84.50
19232;DHT22;9750;48.730;10.294;2022-08-18T12:55:53;25.10;84.40
19232;DHT22;9750;48.730;10.294;2022-08-18T12:58:20;25.10;85.10
19232;DHT22;9750;48.730;10.294;2022-08-18T13:00:47;25.10;84.90
19232;DHT22;9750;48.730;10.294;2022-08-18T13:03:15;25.20;83.30
19232;DHT22;9750;48.730;10.294;2022-08-18T13:05:44;25.30;83.70
19232;DHT22;9750;48.730;10.294;2022-08-18T13:08:17;25.40;84.20
19232;DHT22;9750;48.730;10.294;2022-08-18T13:10:46;25.50;83.60
19232;DHT22;9750;48.730;10.294;2022-08-18T13:13:15;25.50;84.40
19232;DHT22;9750;48.730;10.294;2022-08-18T13:15:43;25.60;83.40
19232;DHT22;9750;48.730;10.294;2022-08-18T13:18:11;25.60;83.20
19232;DHT22;9750;48.730;10.294;2022-08-18T13:20:39;25.60;83.00
19232;DHT22;9750;48.730;10.294;2022-08-18T13:23:06;25.50;83.20
19232;DHT22;9750;48.730;10.294;2022-08-18T13:25:34;25.50;81.50
19232;DHT22;9750;48.730;10.294;2022-08-18T13:28:04;25.50;82.40
19232;DHT22;9750;48.730;10.294;2022-08-18T13:30:32;25.40;82.00
19232;DHT22;9750;48.730;10.294;2022-08-18T13:33:00;25.50;81.70
19232;DHT22;9750;48.730;10.294;2022-08-18T13:35:28;25.50;82.20
19232;DHT22;9750;48.730;10.294;2022-08-18T13:37:55;25.60;83.10
19232;DHT22;9750;48.730;10.294;2022-08-18T13:40:23;25.60;83.10
19232;DHT22;9750;48.730;10.294;2022-08-18T13:42:50;25.60;82.90
19232;DHT22;9750;48.730;10.294;2022-08-18T13:45:21;25.60;82.80
19232;DHT22;9750;48.730;10.294;2022-08-18T13:47:49;25.40;82.60
19232;DHT22;9750;48.730;10.294;2022-08-18T13:50:17;25.50;83.20
19232;DHT22;9750;48.730;10.294;2022-08-18T13:56:06;25.70;82.80
19232;DHT22;9750;48.730;10.294;2022-08-18T13:58:35;25.80;81.40
19232;DHT22;9750;48.730;10.294;2022-08-18T14:01:06;25.90;81.30
19232;DHT22;9750;48.730;10.294;2022-08-18T14:03:34;25.90;79.70
19232;DHT22;9750;48.730;10.294;2022-08-18T14:06:01;25.90;80.00
19232;DHT22;9750;48.730;10.294;2022-08-18T14:08:30;26.00;79.90
19232;DHT22;9750;48.730;10.294;2022-08-18T14:11:00;26.00;80.00
19232;DHT22;9750;48.730;10.294;2022-08-18T14:13:28;26.10;79.40
19232;DHT22;9750;48.730;10.294;2022-08-18T14:15:57;26.10;78.60
19232;DHT22;9750;48.730;10.294;2022-08-18T14:18:27;26.10;79.50
19232;DHT22;9750;48.730;10.294;2022-08-18T14:20:55;26.10;79.30
19232;DHT22;9750;48.730;10.294;2022-08-18T14:23:39;26.10;79.40
19232;DHT22;9750;48.730;10.294;2022-08-18T14:26:24;26.10;78.20
19232;DHT22;9750;48.730;10.294;2022-08-18T14:29:08;26.20;78.50
19232;DHT22;9750;48.730;10.294;2022-08-18T14:31:36;26.20;78.90
19232;DHT22;9750;48.730;10.294;2022-08-18T14:34:05;26.10;78.30
19232;DHT22;9750;48.730;10.294;2022-08-18T14:36:32;26.10;77.80
19232;DHT22;9750;48.730;10.294;2022-08-18T14:39:00;26.10;77.70
19232;DHT22;9750;48.730;10.294;2022-08-18T14:41:28;26.10;77.20
19232;DHT22;9750;48.730;10.294;2022-08-18T14:43:56;26.10;77.20
19232;DHT22;9750;48.730;10.294;2022-08-18T14:46:23;26.10;77.70
19232;DHT22;9750;48.730;10.294;2022-08-18T14:48:51;26.10;77.50
19232;DHT22;9750;48.730;10.294;2022-08-18T14:51:19;26.20;77.50
19232;DHT22;9750;48.730;10.294;2022-08-18T14:53:47;26.10;77.20
19232;DHT22;9750;48.730;10.294;2022-08-18T14:56:14;26.20;77.30
19232;DHT22;9750;48.730;10.294;2022-08-18T14:58:42;26.30;77.40
19232;DHT22;9750;48.730;10.294;2022-08-18T15:01:10;26.30;77.30
19232;DHT22;9750;48.730;10.294;2022-08-18T15:03:38;26.30;77.20
19232;DHT22;9750;48.730;10.294;2022-08-18T15:06:07;26.40;76.70
19232;DHT22;9750;48.730;10.294;2022-08-18T15:08:37;26.50;75.80
19232;DHT22;9750;48.730;10.294;2022-08-18T15:11:06;26.50;76.30
19232;DHT22;9750;48.730;10.294;2022-08-18T15:13:33;26.40;76.10
19232;DHT22;9750;48.730;10.294;2022-08-18T15:16:02;26.40;76.30
19232;DHT22;9750;48.730;10.294;2022-08-18T15:18:30;26.40;76.30
19232;DHT22;9750;48.730;10.294;2022-08-18T15:20:59;26.30;76.30
19232;DHT22;9750;48.730;10.294;2022-08-18T15:23:45;26.20;76.40
19232;DHT22;9750;48.730;10.294;2022-08-18T15:26:29;26.10;78.70
19232;DHT22;9750;48.730;10.294;2022-08-18T15:28:57;26.00;78.40
19232;DHT22;9750;48.730;10.294;2022-08-18T15:31:25;25.90;77.10
19232;DHT22;9750;48.730;10.294;2022-08-18T15:33:52;25.90;77.00
19232;DHT22;9750;48.730;10.294;2022-08-18T15:36:20;25.80;78.00
19232;DHT22;9750;48.730;10.294;2022-08-18T15:38:50;25.70;79.70
19232;DHT22;9750;48.730;10.294;2022-08-18T15:41:28;25.70;79.30
19232;DHT22;9750;48.730;10.294;2022-08-18T15:43:56;25.70;79.20
19232;DHT22;9750;48.730;10.294;2022-08-18T15:46:23;25.60;77.30
19232;DHT22;9750;48.730;10.294;2022-08-18T15:48:51;25.50;77.70
19232;DHT22;9750;48.730;10.294;2022-08-18T15:51:18;25.50;77.40
19232;DHT22;9750;48.730;10.294;2022-08-18T15:53:46;25.50;77.90
19232;DHT22;9750;48.730;10.294;2022-08-18T15:56:16;25.50;79.90
19232;DHT22;9750;48.730;10.294;2022-08-18T15:58:44;25.50;81.60
19232;DHT22;9750;48.730;10.294;2022-08-18T16:01:13;25.50;82.00
19232;DHT22;9750;48.730;10.294;2022-08-18T16:03:41;25.50;80.20
19232;DHT22;9750;48.730;10.294;2022-08-18T16:06:12;25.30;81.20
19232;DHT22;9750;48.730;10.294;2022-08-18T16:08:40;25.40;81.30
19232;DHT22;9750;48.730;10.294;2022-08-18T16:11:10;25.30;81.30
19232;DHT22;9750;48.730;10.294;2022-08-18T16:13:40;25.20;81.20
19232;DHT22;9750;48.730;10.294;2022-08-18T16:16:09;25.10;82.10
19232;DHT22;9750;48.730;10.294;2022-08-18T16:18:38;25.10;81.90
19232;DHT22;9750;48.730;10.294;2022-08-18T16:21:07;25.00;81.60
19232;DHT22;9750;48.730;10.294;2022-08-18T16:23:36;24.90;81.50
19232;DHT22;9750;48.730;10.294;2022-08-18T16:26:04;24.80;82.20
19232;DHT22;9750;48.730;10.294;2022-08-18T16:28:33;24.80;82.30
19232;DHT22;9750;48.730;10.294;2022-08-18T16:31:02;24.80;82.10
19232;DHT22;9750;48.730;10.294;2022-08-18T16:33:30;24.80;82.50
19232;DHT22;9750;48.730;10.294;2022-08-18T16:36:02;24.70;82.20
19232;DHT22;9750;48.730;10.294;2022-08-18T16:38:30;24.70;82.50
19232;DHT22;9750;48.730;10.294;2022-08-18T16:41:03;24.70;82.80
19232;DHT22;9750;48.730;10.294;2022-08-18T16:43:31;24.60;82.90
19232;DHT22;9750;48.730;10.294;2022-08-18T16:46:00;24.60;83.00
19232;DHT22;9750;48.730;10.294;2022-08-18T16:48:28;24.60;82.70
19232;DHT22;9750;48.730;10.294;2022-08-18T16:50:56;24.50;82.60
19232;DHT22;9750;48.730;10.294;2022-08-18T16:53:23;24.50;82.70
19232;DHT22;9750;48.730;10.294;2022-08-18T16:55:50;24.50;82.90
19232;DHT22;9750;48.730;10.294;2022-08-18T16:58:18;24.50;82.60
19232;DHT22;9750;48.730;10.294;2022-08-18T17:01:04;24.40;82.70
19232;DHT22;9750;48.730;10.294;2022-08-18T17:03:49;24.40;83.10
19232;DHT22;9750;48.730;10.294;2022-08-18T17:06:38;24.40;82.70
19232;DHT22;9750;48.730;10.294;2022-08-18T17:09:06;24.30;83.00
19232;DHT22;9750;48.730;10.294;2022-08-18T17:11:36;24.30;83.10
19232;DHT22;9750;48.730;10.294;2022-08-18T17:14:05;24.30;83.60
19232;DHT22;9750;48.730;10.294;2022-08-18T17:16:36;24.20;83.30
19232;DHT22;9750;48.730;10.294;2022-08-18T17:19:05;24.20;83.20
19232;DHT22;9750;48.730;10.294;2022-08-18T17:21:34;24.10;83.50
19232;DHT22;9750;48.730;10.294;2022-08-18T17:24:05;24.10;83.70
19232;DHT22;9750;48.730;10.294;2022-08-18T17:26:41;24.10;83.70
19232;DHT22;9750;48.730;10.294;2022-08-18T17:29:16;24.10;83.80
19232;DHT22;9750;48.730;10.294;2022-08-18T17:31:49;24.00;83.70
19232;DHT22;9750;48.730;10.294;2022-08-18T17:34:20;24.00;84.20
19232;DHT22;9750;48.730;10.294;2022-08-18T17:36:51;23.90;84.20
19232;DHT22;9750;48.730;10.294;2022-08-18T17:39:22;23.90;84.60